Time;durP1;ratioP1;P1;durP2;ratioP2;P2;SDS_P1;SDS_P2;PMS_P1;PMS_P2;Temp;Humidity;BMP_temperature;BMP_pressure;BME280_temperature;BME280_humidity;BME280_pressure;Samples;Min_cycle;Max_cycle;Signal;HPM_P1;HPM_P2
2023/05/21 00:00:07;;;;;;;291.90;281.25;;;12.50;99.90;;;;;;5072684;28;20963;-64
2023/05/21 00:02:34;;;;;;;325.60;313.27;;;12.40;99.90;;;;;;5072890;28;20227;-64
2023/05/21 00:05:01;;;;;;;291.50;280.77;;;12.50;99.90;;;;;;5072932;28;20841;-64
2023/05/21 00:07:28;;;;;;;336.17;323.17;;;12.40;99.90;;;;;;5071980;28;20521;-64
2023/05/21 00:09:55;;;;;;;334.87;322.07;;;12.40;99.90;;;;;;5052749;28;20457;-64
2023/05/21 00:12:21;;;;;;;300.47;289.63;;;12.40;99.90;;;;;;5052486;28;20538;-64
2023/05/21 00:14:49;;;;;;;301.57;290.03;;;12.50;99.90;;;;;;5052781;28;20800;-64
2023/05/21 00:17:16;;;;;;;300.00;289.13;;;12.50;99.90;;;;;;5052866;28;20452;-64
2023/05/21 00:19:43;;;;;;;305.00;293.70;;;12.50;99.90;;;;;;5052533;28;20482;-64
2023/05/21 00:22:10;;;;;;;300.63;289.33;;;12.60;99.90;;;;;;5057117;28;20457;-64
2023/05/21 00:24:37;;;;;;;271.90;261.60;;;12.60;99.90;;;;;;5072566;28;20450;-64
2023/05/21 00:27:04;;;;;;;261.40;251.83;;;12.60;99.90;;;;;;5072071;28;20822;-64
2023/05/21 00:29:31;;;;;;;277.07;266.87;;;12.70;99.90;;;;;;5072520;28;20479;-64
2023/05/21 00:31:59;;;;;;;285.73;275.20;;;12.60;99.90;;;;;;5072257;28;20450;-64
2023/05/21 00:34:26;;;;;;;267.38;257.73;;;12.60;99.90;;;;;;5072354;28;20451;-64
2023/05/21 00:36:54;;;;;;;248.17;238.97;;;12.50;99.90;;;;;;5072215;28;20197;-64
2023/05/21 00:39:21;;;;;;;287.10;276.17;;;12.40;99.90;;;;;;5072060;28;20473;-64
2023/05/21 00:41:48;;;;;;;214.77;206.43;;;12.50;99.90;;;;;;5071746;28;20454;-64
2023/05/21 00:44:18;;;;;;;218.35;210.25;;;12.60;99.90;;;;;;5072494;28;20488;-64
2023/05/21 00:46:47;;;;;;;184.17;177.27;;;12.60;99.90;;;;;;5071912;28;20195;-64
2023/05/21 00:49:16;;;;;;;156.55;150.15;;;12.60;99.90;;;;;;5072545;28;20556;-64
2023/05/21 00:51:44;;;;;;;177.23;170.37;;;12.60;99.90;;;;;;5072112;28;20206;-64
2023/05/21 00:54:10;;;;;;;260.77;251.23;;;12.60;99.90;;;;;;5072095;28;20447;-64
2023/05/21 00:56:38;;;;;;;219.33;211.50;;;12.50;99.90;;;;;;5071524;28;20521;-64
2023/05/21 00:59:05;;;;;;;251.40;242.57;;;12.50;99.90;;;;;;5072285;28;20451;-64
2023/05/21 01:01:35;;;;;;;277.90;267.80;;;12.40;99.90;;;;;;5071882;28;20450;-64
2023/05/21 01:04:02;;;;;;;294.33;283.63;;;12.40;99.90;;;;;;5072128;28;20505;-64
2023/05/21 01:06:33;;;;;;;266.23;256.13;;;12.40;99.90;;;;;;5072007;28;20450;-64
2023/05/21 01:09:00;;;;;;;228.03;219.63;;;12.40;99.90;;;;;;5072093;28;20478;-64
2023/05/21 01:11:38;;;;;;;203.13;195.57;;;12.50;99.90;;;;;;5071971;28;20450;-64
2023/05/21 01:14:06;;;;;;;205.53;198.20;;;12.60;99.90;;;;;;5071223;28;20457;-64
2023/05/21 01:16:35;;;;;;;189.13;182.03;;;12.50;99.90;;;;;;5071958;28;20874;-64
2023/05/21 01:19:03;;;;;;;231.67;223.23;;;12.60;99.90;;;;;;5071737;28;20487;-64
2023/05/21 01:21:34;;;;;;;317.60;306.40;;;12.40;99.90;;;;;;5071759;28;20798;-64
2023/05/21 01:24:04;;;;;;;342.17;330.08;;;12.30;99.90;;;;;;5071579;28;20450;-64
2023/05/21 01:26:32;;;;;;;430.77;414.80;;;12.00;99.90;;;;;;5071715;28;20313;-64
2023/05/21 01:28:59;;;;;;;501.77;482.88;;;11.90;99.90;;;;;;5071733;28;20549;-64
2023/05/21 01:31:31;;;;;;;537.70;516.30;;;11.90;99.90;;;;;;5071749;28;20200;-64
2023/05/21 01:34:02;;;;;;;509.38;490.08;;;11.80;99.90;;;;;;5071185;28;20520;-64
2023/05/21 01:36:34;;;;;;;514.63;494.83;;;11.70;99.90;;;;;;5072008;28;20545;-64
2023/05/21 01:39:07;;;;;;;650.20;622.00;;;11.70;99.90;;;;;;5071701;28;20561;-64
2023/05/21 01:41:40;;;;;;;736.87;698.10;;;11.50;99.90;;;;;;5071498;28;20980;-64
2023/05/21 01:44:08;;;;;;;749.27;709.07;;;11.50;99.90;;;;;;5071850;28;20458;-64
2023/05/21 01:46:37;;;;;;;776.23;731.10;;;11.40;99.90;;;;;;5071094;28;20446;-64
2023/05/21 01:49:05;;;;;;;774.07;729.07;;;11.30;99.90;;;;;;5051417;28;20471;-64
2023/05/21 01:51:33;;;;;;;805.07;758.30;;;11.30;99.90;;;;;;5051323;28;20459;-64
2023/05/21 01:53:59;;;;;;;830.90;780.40;;;11.10;99.90;;;;;;5053248;28;20457;-64
2023/05/21 01:56:27;;;;;;;826.93;776.73;;;11.10;99.90;;;;;;5055059;28;20454;-64
2023/05/21 01:58:58;;;;;;;819.37;770.07;;;11.20;99.90;;;;;;5055366;28;20454;-64
2023/05/21 02:01:25;;;;;;;826.07;774.50;;;11.20;99.90;;;;;;5062166;28;20446;-64
2023/05/21 02:03:52;;;;;;;843.88;789.40;;;11.30;99.90;;;;;;5074935;28;20454;-64
2023/05/21 02:06:18;;;;;;;847.80;791.80;;;11.30;99.90;;;;;;5074910;28;20652;-64
2023/05/21 02:08:47;;;;;;;834.03;782.37;;;11.20;99.90;;;;;;5074990;28;20474;-64
2023/05/21 02:11:14;;;;;;;812.80;765.07;;;11.20;99.90;;;;;;5074870;28;20476;-64
2023/05/21 02:13:42;;;;;;;832.13;782.77;;;11.20;99.90;;;;;;5075004;28;20450;-64
2023/05/21 02:16:10;;;;;;;829.50;780.67;;;11.30;99.90;;;;;;5074769;28;20524;-64
2023/05/21 02:18:37;;;;;;;844.17;791.77;;;11.20;99.90;;;;;;5074582;28;20438;-64
2023/05/21 02:21:04;;;;;;;858.13;803.00;;;11.30;99.90;;;;;;5074577;28;20804;-64
2023/05/21 02:23:31;;;;;;;873.10;813.77;;;11.20;99.90;;;;;;5074753;28;20537;-64
2023/05/21 02:25:57;;;;;;;845.47;790.20;;;11.30;99.90;;;;;;5074820;28;20459;-64
2023/05/21 02:28:24;;;;;;;834.60;783.10;;;11.20;99.90;;;;;;5074475;28;20497;-64
2023/05/21 02:30:52;;;;;;;803.83;755.47;;;11.20;99.90;;;;;;5074401;28;20533;-64
2023/05/21 02:33:20;;;;;;;835.03;784.00;;;11.30;99.90;;;;;;5074490;28;20462;-64
2023/05/21 02:35:47;;;;;;;829.43;779.43;;;11.20;99.90;;;;;;5074243;28;20449;-64
2023/05/21 02:38:18;;;;;;;812.63;764.27;;;11.20;99.90;;;;;;5074433;28;20455;-64
2023/05/21 02:40:45;;;;;;;818.97;770.87;;;11.10;99.90;;;;;;5074337;28;20461;-64
2023/05/21 02:43:11;;;;;;;827.30;776.87;;;11.10;99.90;;;;;;5074248;28;20450;-64
2023/05/21 02:45:38;;;;;;;823.47;773.50;;;11.00;99.90;;;;;;5074173;28;20462;-64
2023/05/21 02:48:06;;;;;;;847.57;794.37;;;11.00;99.90;;;;;;5074284;28;20450;-64
2023/05/21 02:50:33;;;;;;;884.07;825.77;;;11.10;99.90;;;;;;5073726;28;20455;-64
2023/05/21 02:53:00;;;;;;;892.43;830.27;;;11.00;99.90;;;;;;5074353;28;20824;-64
2023/05/21 02:55:27;;;;;;;880.83;819.70;;;11.00;99.90;;;;;;5074097;28;20446;-64
2023/05/21 02:57:54;;;;;;;885.43;823.87;;;10.90;99.90;;;;;;5073767;28;20455;-64
2023/05/21 03:00:20;;;;;;;892.00;829.20;;;10.80;99.90;;;;;;5073592;28;20454;-65
2023/05/21 03:02:47;;;;;;;873.60;810.67;;;10.80;99.90;;;;;;5073257;28;20792;-65
2023/05/21 03:05:15;;;;;;;877.67;813.73;;;10.90;99.90;;;;;;5073309;28;20446;-65
2023/05/21 03:07:42;;;;;;;885.93;821.33;;;10.80;99.90;;;;;;5073576;28;20470;-65
2023/05/21 03:10:10;;;;;;;878.53;814.07;;;10.80;99.90;;;;;;5071680;28;20477;-65
2023/05/21 03:12:36;;;;;;;867.87;807.60;;;10.90;99.90;;;;;;5073481;28;20451;-65
2023/05/21 03:15:03;;;;;;;872.40;812.03;;;10.90;99.90;;;;;;5074415;28;20455;-65
2023/05/21 03:17:30;;;;;;;864.17;804.17;;;10.90;99.90;;;;;;5073609;28;20859;-65
2023/05/21 03:19:57;;;;;;;865.93;805.83;;;10.90;99.90;;;;;;5073801;28;20450;-64
2023/05/21 03:22:25;;;;;;;874.57;810.47;;;11.00;99.90;;;;;;5073417;28;20831;-65
2023/05/21 03:24:52;;;;;;;862.07;801.93;;;10.90;99.90;;;;;;5075122;28;20461;-65
2023/05/21 03:27:19;;;;;;;860.17;801.47;;;11.00;99.90;;;;;;5075831;28;20537;-65
2023/05/21 03:29:46;;;;;;;853.70;796.47;;;11.00;99.90;;;;;;5073262;28;20216;-64
2023/05/21 03:32:13;;;;;;;872.30;812.70;;;11.00;99.90;;;;;;5072818;28;20963;-64
2023/05/21 03:34:40;;;;;;;873.25;812.92;;;11.10;99.90;;;;;;5073402;28;20465;-65
2023/05/21 03:37:06;;;;;;;866.93;808.13;;;11.00;99.90;;;;;;5073317;28;20206;-65
2023/05/21 03:39:34;;;;;;;872.33;812.17;;;11.10;99.90;;;;;;5073540;28;20453;-64
2023/05/21 03:42:01;;;;;;;879.53;816.90;;;11.10;99.90;;;;;;5072854;28;20451;-64
2023/05/21 03:44:31;;;;;;;879.30;819.37;;;11.10;99.90;;;;;;5059221;28;20443;-64
2023/05/21 03:46:57;;;;;;;866.10;806.70;;;11.10;99.90;;;;;;5053230;28;20483;-65
2023/05/21 03:49:25;;;;;;;864.70;804.20;;;11.10;99.90;;;;;;5052977;28;20848;-65
2023/05/21 03:51:52;;;;;;;873.83;813.23;;;11.10;99.90;;;;;;5060859;28;20473;-65
2023/05/21 03:54:19;;;;;;;876.10;816.40;;;11.10;99.90;;;;;;5072803;28;20507;-65
2023/05/21 03:56:47;;;;;;;865.60;806.70;;;11.10;99.90;;;;;;5072515;28;20446;-64
2023/05/21 03:59:14;;;;;;;875.97;813.67;;;11.00;99.90;;;;;;5072415;28;20457;-65
2023/05/21 04:01:41;;;;;;;877.20;815.17;;;11.10;99.90;;;;;;5071839;28;20446;-65
2023/05/21 04:04:08;;;;;;;880.63;817.70;;;11.00;99.90;;;;;;5070676;28;20446;-65
2023/05/21 04:06:35;;;;;;;875.07;811.70;;;11.10;99.90;;;;;;5072419;28;20451;-65
2023/05/21 04:09:02;;;;;;;867.28;806.90;;;11.20;99.90;;;;;;5072353;28;20470;-65
2023/05/21 04:11:31;;;;;;;858.30;798.80;;;11.30;99.90;;;;;;5072334;28;20584;-65
2023/05/21 04:14:00;;;;;;;862.80;804.93;;;11.30;99.90;;;;;;5072172;28;20447;-65
2023/05/21 04:16:26;;;;;;;833.73;778.37;;;11.30;99.90;;;;;;5071637;28;20457;-65
2023/05/21 04:18:55;;;;;;;820.07;768.27;;;11.30;99.90;;;;;;5072475;28;20443;-65
2023/05/21 04:21:21;;;;;;;824.47;770.90;;;11.40;99.90;;;;;;5072126;28;20797;-65
2023/05/21 04:23:48;;;;;;;844.53;788.83;;;11.50;99.90;;;;;;5072086;28;20450;-64
2023/05/21 04:26:15;;;;;;;826.43;772.60;;;11.60;99.90;;;;;;5072383;28;20453;-65
2023/05/21 04:28:42;;;;;;;804.03;754.03;;;11.60;99.90;;;;;;5070128;28;20446;-64
2023/05/21 04:31:11;;;;;;;775.63;728.20;;;11.70;99.90;;;;;;5071662;28;20474;-65
2023/05/21 04:33:41;;;;;;;764.93;720.63;;;11.60;99.90;;;;;;5071587;28;20461;-65
2023/05/21 04:36:09;;;;;;;715.60;680.20;;;11.70;99.90;;;;;;5071627;28;20452;-65
2023/05/21 04:38:36;;;;;;;681.73;648.33;;;11.80;99.90;;;;;;5071850;28;20223;-65
2023/05/21 04:41:03;;;;;;;660.13;628.23;;;11.90;99.90;;;;;;5071847;28;20450;-65
2023/05/21 04:43:30;;;;;;;683.70;649.17;;;12.00;99.90;;;;;;5071996;28;20949;-65
2023/05/21 04:45:57;;;;;;;629.37;599.70;;;12.00;99.90;;;;;;5071910;28;20447;-65
2023/05/21 04:48:27;;;;;;;597.80;569.43;;;12.10;99.90;;;;;;5071833;28;20450;-65
2023/05/21 04:50:54;;;;;;;569.67;543.47;;;12.10;99.90;;;;;;5055800;28;20476;-65
2023/05/21 04:53:22;;;;;;;539.97;517.33;;;12.20;99.90;;;;;;5072151;28;20446;-65
2023/05/21 04:55:49;;;;;;;522.00;500.85;;;12.20;99.90;;;;;;5071478;28;20480;-65
2023/05/21 04:58:17;;;;;;;477.23;458.47;;;12.30;99.90;;;;;;5072168;28;20200;-65
2023/05/21 05:00:45;;;;;;;483.67;463.37;;;12.30;99.90;;;;;;5071686;28;20446;-65
2023/05/21 05:03:12;;;;;;;445.33;427.17;;;12.40;99.90;;;;;;5071158;28;20450;-65
2023/05/21 05:05:40;;;;;;;405.73;389.80;;;12.50;99.90;;;;;;5071730;28;20446;-65
2023/05/21 05:08:07;;;;;;;374.65;361.02;;;12.60;99.90;;;;;;5071996;28;20817;-65
2023/05/21 05:10:34;;;;;;;331.60;319.50;;;12.50;99.90;;;;;;5071729;28;20221;-65
2023/05/21 05:13:01;;;;;;;322.93;311.40;;;12.70;99.90;;;;;;5071557;28;20469;-64
2023/05/21 05:15:28;;;;;;;264.70;255.07;;;12.70;99.90;;;;;;5070972;28;20454;-64
2023/05/21 05:17:55;;;;;;;223.53;215.40;;;12.80;99.90;;;;;;5071127;28;20442;-64
2023/05/21 05:20:22;;;;;;;187.70;180.80;;;12.80;99.90;;;;;;5071731;28;20482;-64
2023/05/21 05:22:50;;;;;;;152.00;146.20;;;12.80;99.90;;;;;;5071549;28;20451;-64
2023/05/21 05:25:17;;;;;;;100.07;95.70;;;13.00;99.90;;;;;;5071484;28;20446;-65
2023/05/21 05:27:44;;;;;;;53.67;50.67;;;13.10;99.90;;;;;;5071227;28;20208;-65
2023/05/21 05:30:11;;;;;;;84.27;80.03;;;13.20;99.90;;;;;;5072781;28;20985;-65
2023/05/21 05:32:38;;;;;;;51.10;48.47;;;13.20;99.90;;;;;;5074526;28;20481;-65
2023/05/21 05:35:06;;;;;;;58.37;55.27;;;13.30;99.90;;;;;;5074645;28;20197;-65
2023/05/21 05:37:33;;;;;;;43.67;40.85;;;13.40;99.90;;;;;;5075099;28;20446;-65
2023/05/21 05:40:03;;;;;;;44.40;41.83;;;13.50;99.90;;;;;;5074409;28;20189;-65
2023/05/21 05:42:30;;;;;;;38.40;35.87;;;13.50;99.90;;;;;;5074902;28;20474;-65
2023/05/21 05:44:56;;;;;;;37.80;35.17;;;13.60;99.90;;;;;;5074829;28;21155;-65
2023/05/21 05:47:23;;;;;;;27.83;26.00;;;13.60;99.90;;;;;;5074480;28;20451;-65
2023/05/21 05:49:50;;;;;;;22.20;19.42;;;13.60;99.90;;;;;;5074356;28;20483;-65
2023/05/21 05:52:17;;;;;;;25.17;23.27;;;13.80;99.90;;;;;;5074890;28;20189;-65
2023/05/21 05:54:43;;;;;;;16.05;14.55;;;13.90;99.90;;;;;;5074030;28;20457;-65
2023/05/21 05:57:12;;;;;;;16.83;13.10;;;13.80;99.90;;;;;;5073975;28;20207;-65
2023/05/21 05:59:38;;;;;;;14.40;13.00;;;14.00;99.90;;;;;;5073442;28;20446;-65
2023/05/21 06:02:05;;;;;;;16.48;13.25;;;14.10;99.90;;;;;;5073159;28;20469;-65
2023/05/21 06:04:32;;;;;;;15.03;13.30;;;14.20;99.90;;;;;;5073555;28;20463;-65
2023/05/21 06:06:59;;;;;;;13.47;11.30;;;14.30;99.90;;;;;;5073803;28;20453;-65
2023/05/21 06:09:26;;;;;;;14.57;12.43;;;14.40;99.90;;;;;;5073741;28;20450;-65
2023/05/21 06:11:53;;;;;;;15.80;11.20;;;14.40;99.90;;;;;;5073814;28;20461;-65
2023/05/21 06:14:21;;;;;;;16.07;11.00;;;14.50;99.90;;;;;;5073641;28;20454;-65
2023/05/21 06:16:48;;;;;;;18.27;11.40;;;14.40;99.90;;;;;;5073524;28;20451;-65
2023/05/21 06:19:15;;;;;;;13.70;9.80;;;14.50;99.90;;;;;;5073271;28;20228;-65
2023/05/21 06:21:42;;;;;;;14.87;11.37;;;14.60;99.90;;;;;;5072788;28;20480;-65
2023/05/21 06:24:09;;;;;;;16.45;11.38;;;14.90;99.90;;;;;;5065469;28;20446;-65
2023/05/21 06:26:35;;;;;;;14.07;10.83;;;15.10;99.90;;;;;;5073576;28;20841;-65
2023/05/21 06:29:03;;;;;;;12.90;10.33;;;15.50;99.90;;;;;;5073372;28;20823;-65
2023/05/21 06:31:32;;;;;;;13.57;10.00;;;15.70;99.90;;;;;;5074362;28;20471;-65
2023/05/21 06:33:59;;;;;;;15.40;9.90;;;15.90;99.90;;;;;;5074143;28;20876;-65
2023/05/21 06:36:28;;;;;;;13.53;9.33;;;16.10;99.90;;;;;;5073787;28;20451;-65
2023/05/21 06:38:55;;;;;;;15.60;10.90;;;16.10;99.90;;;;;;5073673;28;20450;-65
2023/05/21 06:41:22;;;;;;;14.07;9.43;;;16.40;99.90;;;;;;5073880;28;20931;-65
2023/05/21 06:43:49;;;;;;;14.80;9.53;;;16.50;99.90;;;;;;5074322;28;21039;-65
2023/05/21 06:46:16;;;;;;;16.07;9.40;;;16.50;99.90;;;;;;5074613;28;20456;-65
2023/05/21 06:48:44;;;;;;;12.40;8.50;;;16.60;99.90;;;;;;5074102;28;20451;-66
2023/05/21 06:51:11;;;;;;;16.85;10.05;;;16.50;99.90;;;;;;5073564;28;20484;-65
2023/05/21 06:53:38;;;;;;;14.00;8.30;;;16.50;99.90;;;;;;5074191;28;20201;-65
2023/05/21 06:56:05;;;;;;;13.03;9.53;;;16.20;99.90;;;;;;5074066;28;20447;-66
2023/05/21 06:58:32;;;;;;;16.03;7.67;;;16.20;99.90;;;;;;5054170;28;20952;-65
2023/05/21 07:00:59;;;;;;;13.43;9.37;;;16.00;99.90;;;;;;5056732;28;20530;-65
2023/05/21 07:03:26;;;;;;;14.20;8.90;;;16.00;99.90;;;;;;5074227;28;20478;-66
2023/05/21 07:05:55;;;;;;;15.40;8.90;;;16.10;99.90;;;;;;5068178;28;20518;-66
2023/05/21 07:08:21;;;;;;;17.33;8.60;;;16.60;99.90;;;;;;5060144;28;20451;-66
2023/05/21 07:10:49;;;;;;;12.27;9.93;;;16.80;99.90;;;;;;5073286;28;20486;-66
2023/05/21 07:13:16;;;;;;;14.73;10.60;;;16.90;99.90;;;;;;5073200;28;20447;-66
2023/05/21 07:15:43;;;;;;;13.07;9.47;;;16.90;99.90;;;;;;5073008;28;20773;-66
2023/05/21 07:18:10;;;;;;;16.60;9.80;;;17.30;99.90;;;;;;5072905;28;20450;-66
2023/05/21 07:20:37;;;;;;;11.17;8.80;;;17.40;98.70;;;;;;5072443;28;20447;-66
2023/05/21 07:23:05;;;;;;;18.03;11.10;;;17.60;98.80;;;;;;5073134;28;20455;-66
2023/05/21 07:25:32;;;;;;;12.77;9.13;;;17.80;97.60;;;;;;5073152;28;20458;-66
2023/05/21 07:27:59;;;;;;;13.20;9.93;;;17.60;98.70;;;;;;5072157;28;20463;-66
2023/05/21 07:30:26;;;;;;;15.00;10.37;;;17.60;96.80;;;;;;5072995;28;20467;-66
2023/05/21 07:32:53;;;;;;;14.60;9.40;;;18.00;98.50;;;;;;5071983;28;20459;-66
2023/05/21 07:35:20;;;;;;;16.30;9.60;;;17.90;98.20;;;;;;5072572;28;20447;-66
2023/05/21 07:37:47;;;;;;;15.10;9.37;;;17.80;97.20;;;;;;5072266;28;20451;-66
2023/05/21 07:40:15;;;;;;;15.52;9.50;;;17.90;97.60;;;;;;5072305;28;20444;-66
2023/05/21 07:42:42;;;;;;;13.60;8.17;;;17.80;97.60;;;;;;5071523;28;20195;-67
2023/05/21 07:45:09;;;;;;;11.53;7.37;;;17.80;96.30;;;;;;5072999;28;20451;-66
2023/05/21 07:47:37;;;;;;;13.57;9.27;;;17.50;96.40;;;;;;5072533;28;20533;-66
2023/05/21 07:50:04;;;;;;;15.23;9.43;;;17.70;96.60;;;;;;5071754;28;20974;-66
2023/05/21 07:52:31;;;;;;;13.63;9.00;;;18.00;97.60;;;;;;5072298;28;20791;-66
2023/05/21 07:54:58;;;;;;;12.87;9.73;;;17.90;95.50;;;;;;5072634;28;20453;-66
2023/05/21 07:57:27;;;;;;;12.77;8.77;;;17.70;95.20;;;;;;5072789;28;20458;-66
2023/05/21 07:59:53;;;;;;;15.77;9.93;;;18.00;96.60;;;;;;5072647;28;20459;-66
2023/05/21 08:02:20;;;;;;;13.80;8.90;;;17.80;96.10;;;;;;5072361;28;20451;-68
2023/05/21 08:04:47;;;;;;;13.90;10.93;;;18.00;96.60;;;;;;5072071;28;20454;-66
2023/05/21 08:07:15;;;;;;;14.73;9.93;;;18.50;94.80;;;;;;5071399;28;20960;-66
2023/05/21 08:09:42;;;;;;;12.97;9.47;;;19.00;94.70;;;;;;5072446;28;20815;-66
2023/05/21 08:12:09;;;;;;;19.70;10.50;;;18.80;94.60;;;;;;5072614;28;20477;-66
2023/05/21 08:14:37;;;;;;;14.00;9.90;;;19.00;94.70;;;;;;5072490;28;20452;-66
2023/05/21 08:17:04;;;;;;;14.10;10.23;;;18.80;94.20;;;;;;5072648;28;20462;-66
2023/05/21 08:19:31;;;;;;;13.77;11.07;;;19.60;92.80;;;;;;5072413;28;20481;-66
2023/05/21 08:21:58;;;;;;;15.60;10.20;;;19.90;91.60;;;;;;5071973;28;20465;-66
2023/05/21 08:24:26;;;;;;;17.23;10.93;;;19.90;90.90;;;;;;5071581;28;20455;-66
2023/05/21 08:26:52;;;;;;;17.20;9.60;;;20.20;91.10;;;;;;5064304;28;20452;-66
2023/05/21 08:29:19;;;;;;;11.93;7.23;;;19.90;87.40;;;;;;5061710;28;20455;-66
2023/05/21 08:31:47;;;;;;;14.57;9.77;;;19.40;88.50;;;;;;5071856;28;20475;-67
2023/05/21 08:34:15;;;;;;;14.60;9.37;;;19.60;90.90;;;;;;5072305;28;20467;-67
2023/05/21 08:36:44;;;;;;;17.93;10.23;;;20.00;90.30;;;;;;5072170;28;20531;-67
2023/05/21 08:39:12;;;;;;;13.57;8.70;;;20.10;91.30;;;;;;5072287;28;20538;-66
2023/05/21 08:41:43;;;;;;;15.10;10.87;;;20.30;88.60;;;;;;5072205;28;20457;-66
2023/05/21 08:44:13;;;;;;;18.13;9.97;;;20.70;86.70;;;;;;5071598;28;20932;-66
2023/05/21 08:46:41;;;;;;;16.75;12.20;;;21.20;83.80;;;;;;5071882;28;20461;-66
2023/05/21 08:49:12;;;;;;;13.53;10.40;;;21.70;79.80;;;;;;5071553;28;20293;-66
2023/05/21 08:51:40;;;;;;;12.93;9.27;;;22.30;80.30;;;;;;5072018;28;20906;-64
2023/05/21 08:54:07;;;;;;;12.50;9.47;;;21.80;77.60;;;;;;5072137;28;20936;-63
2023/05/21 08:56:35;;;;;;;14.65;10.82;;;21.70;77.90;;;;;;5071317;28;20446;-63
2023/05/21 08:59:02;;;;;;;16.23;10.40;;;22.10;74.80;;;;;;5072014;28;20258;-64
2023/05/21 09:01:32;;;;;;;14.03;10.60;;;22.40;72.70;;;;;;5072062;28;20795;-63
2023/05/21 09:04:01;;;;;;;17.37;10.77;;;22.40;75.20;;;;;;5074943;28;20452;-63
2023/05/21 09:06:32;;;;;;;14.70;9.90;;;21.90;76.60;;;;;;5075283;28;20458;-64
2023/05/21 09:09:06;;;;;;;14.03;10.20;;;22.00;72.30;;;;;;5075353;28;20449;-63
2023/05/21 09:11:33;;;;;;;17.37;10.93;;;22.10;72.00;;;;;;5075365;28;20480;-64
2023/05/21 09:14:01;;;;;;;14.40;10.13;;;22.10;74.20;;;;;;5076653;28;20461;-64
2023/05/21 09:16:27;;;;;;;14.00;10.60;;;21.80;76.60;;;;;;5075637;28;20448;-64
2023/05/21 09:18:54;;;;;;;14.43;10.23;;;21.90;77.00;;;;;;5076079;28;20454;-64
2023/05/21 09:21:26;;;;;;;14.77;10.70;;;22.10;76.00;;;;;;5074144;28;20449;-63
2023/05/21 09:23:56;;;;;;;16.70;10.50;;;22.60;72.80;;;;;;5075046;28;20450;-64
2023/05/21 09:26:23;;;;;;;13.13;9.77;;;22.00;72.00;;;;;;5075648;28;20462;-64
2023/05/21 09:28:51;;;;;;;14.13;9.27;;;22.50;72.40;;;;;;5075206;28;20196;-64
2023/05/21 09:31:18;;;;;;;15.63;11.27;;;22.20;72.10;;;;;;5075941;28;20532;-63
2023/05/21 09:33:48;;;;;;;13.50;10.27;;;22.40;74.50;;;;;;5076017;28;20558;-63
2023/05/21 09:36:15;;;;;;;17.90;11.40;;;22.60;73.90;;;;;;5055729;28;20455;-63
2023/05/21 09:38:41;;;;;;;14.57;10.90;;;22.70;72.60;;;;;;5055485;28;20459;-63
2023/05/21 09:41:10;;;;;;;14.48;10.38;;;23.10;67.80;;;;;;5055636;28;20454;-63
2023/05/21 09:43:37;;;;;;;15.30;8.93;;;22.60;71.10;;;;;;5055831;28;20196;-63
2023/05/21 09:46:03;;;;;;;17.63;12.03;;;21.50;71.50;;;;;;5055798;28;20462;-63
2023/05/21 09:48:35;;;;;;;14.17;11.03;;;21.70;71.60;;;;;;5055683;28;20481;-63
2023/05/21 09:51:11;;;;;;;13.37;10.17;;;21.90;74.70;;;;;;5059409;28;20969;-63
2023/05/21 09:53:43;;;;;;;22.83;10.03;;;21.90;71.70;;;;;;5075642;28;20476;-63
2023/05/21 09:56:12;;;;;;;13.40;9.50;;;21.10;74.30;;;;;;5055403;28;20449;-63
2023/05/21 09:58:39;;;;;;;15.40;11.10;;;21.00;75.70;;;;;;5055508;28;20458;-64
2023/05/21 10:01:07;;;;;;;20.90;10.20;;;21.40;78.30;;;;;;5056709;28;20454;-63
2023/05/21 10:03:37;;;;;;;16.35;11.80;;;21.70;72.80;;;;;;5075469;28;20512;-62
2023/05/21 10:06:05;;;;;;;16.70;11.43;;;22.30;72.20;;;;;;5074901;28;20205;-63
2023/05/21 10:08:36;;;;;;;17.50;13.30;;;22.50;71.80;;;;;;5074888;28;20461;-63
2023/05/21 10:11:05;;;;;;;15.00;11.50;;;23.10;70.70;;;;;;5075106;28;20478;-64
2023/05/21 10:13:36;;;;;;;15.80;12.00;;;22.80;72.30;;;;;;5074637;28;20450;-64
2023/05/21 10:16:04;;;;;;;18.67;11.80;;;23.20;70.60;;;;;;5074529;28;20450;-66
2023/05/21 10:18:32;;;;;;;15.83;10.73;;;23.80;65.30;;;;;;5075050;28;20457;-65
2023/05/21 10:21:00;;;;;;;17.80;13.53;;;24.10;57.10;;;;;;5074769;28;20808;-67
2023/05/21 10:23:27;;;;;;;15.67;11.50;;;25.30;60.60;;;;;;5075171;28;20489;-68
2023/05/21 10:25:55;;;;;;;16.67;12.33;;;24.90;60.40;;;;;;5075166;28;20454;-67
2023/05/21 10:28:23;;;;;;;16.53;11.77;;;25.40;55.20;;;;;;5074905;28;20461;-68
2023/05/21 10:30:52;;;;;;;18.63;12.13;;;25.40;52.10;;;;;;5074863;28;20475;-67
2023/05/21 10:33:21;;;;;;;15.82;11.48;;;24.90;51.90;;;;;;5074168;28;20462;-67
2023/05/21 10:35:49;;;;;;;14.60;10.43;;;25.50;57.90;;;;;;5074662;28;20192;-68
2023/05/21 10:38:19;;;;;;;14.50;12.10;;;24.90;56.60;;;;;;5074511;28;20448;-67
2023/05/21 10:40:47;;;;;;;18.73;13.40;;;25.30;56.10;;;;;;5074435;28;20454;-66
2023/05/21 10:43:41;;;;;;;16.23;11.90;;;25.00;51.40;;;;;;5074009;28;20448;-67
2023/05/21 10:46:37;;;;;;;19.73;14.00;;;24.40;51.80;;;;;;5074485;28;20464;-66
2023/05/21 10:49:27;;;;;;;17.80;12.00;;;25.30;56.30;;;;;;5067274;28;20980;-66
2023/05/21 10:52:04;;;;;;;19.50;13.53;;;24.60;57.90;;;;;;5074159;28;20474;-68
2023/05/21 10:54:51;;;;;;;19.83;13.90;;;24.50;50.40;;;;;;5074672;28;20450;-71
2023/05/21 10:57:32;;;;;;;16.17;11.93;;;24.20;59.50;;;;;;5074540;28;20469;-66
2023/05/21 10:59:59;;;;;;;18.60;12.77;;;24.40;57.30;;;;;;5074668;28;20807;-65
2023/05/21 11:02:29;;;;;;;16.60;12.83;;;24.50;57.40;;;;;;5073896;28;20446;-65
2023/05/21 11:05:00;;;;;;;17.90;12.70;;;24.30;53.70;;;;;;5073660;28;20938;-65
2023/05/21 11:07:52;;;;;;;17.70;12.33;;;24.00;53.30;;;;;;5073494;28;20453;-65
2023/05/21 11:10:32;;;;;;;17.50;12.83;;;23.80;57.70;;;;;;5073625;28;20508;-64
2023/05/21 11:13:07;;;;;;;18.70;12.60;;;23.80;56.80;;;;;;5073944;28;20501;-64
2023/05/21 11:16:06;;;;;;;19.87;10.10;;;24.60;58.90;;;;;;5074087;28;20453;-65
2023/05/21 11:19:00;;;;;;;18.80;12.60;;;24.30;57.20;;;;;;5074022;28;20490;-64
2023/05/21 11:21:30;;;;;;;22.20;13.00;;;23.70;56.70;;;;;;5073465;28;20442;-63
2023/05/21 11:24:03;;;;;;;17.60;13.10;;;23.50;64.20;;;;;;5073948;28;20452;-63
2023/05/21 11:26:46;;;;;;;18.10;13.83;;;23.80;65.30;;;;;;5073621;28;20192;-64
2023/05/21 11:29:13;;;;;;;18.00;12.63;;;23.90;60.20;;;;;;5073354;28;20452;-64
2023/05/21 11:31:45;;;;;;;20.70;12.77;;;24.30;62.90;;;;;;5073381;28;20474;-63
2023/05/21 11:34:14;;;;;;;16.23;11.18;;;24.50;62.10;;;;;;5073654;28;20471;-64
2023/05/21 11:36:42;;;;;;;17.77;12.30;;;24.60;57.60;;;;;;5073606;28;20203;-64
2023/05/21 11:39:10;;;;;;;17.37;12.67;;;24.40;54.80;;;;;;5073407;28;20960;-63
2023/05/21 11:41:53;;;;;;;16.87;12.93;;;25.30;58.10;;;;;;5073402;28;20445;-64
2023/05/21 11:44:37;;;;;;;23.90;13.40;;;25.20;51.90;;;;;;5073769;28;20450;-64
2023/05/21 11:47:05;;;;;;;17.40;12.87;;;24.80;55.70;;;;;;5073392;28;20454;-64
2023/05/21 11:49:33;;;;;;;16.90;12.50;;;25.10;57.90;;;;;;5073370;28;20537;-64
2023/05/21 11:52:00;;;;;;;19.73;14.17;;;24.90;57.80;;;;;;5073078;28;20483;-64
2023/05/21 11:54:28;;;;;;;19.30;13.70;;;24.90;53.80;;;;;;5072743;28;21072;-63
2023/05/21 11:56:55;;;;;;;21.33;14.50;;;25.00;57.90;;;;;;5072514;28;20520;-64
2023/05/21 11:59:22;;;;;;;14.98;11.80;;;25.60;54.20;;;;;;5072651;28;20811;-64
2023/05/21 12:01:48;;;;;;;18.37;11.50;;;26.30;49.90;;;;;;5072480;28;20204;-64
2023/05/21 12:04:15;;;;;;;22.63;14.17;;;26.00;49.70;;;;;;5072614;28;20454;-64
2023/05/21 12:06:44;;;;;;;19.93;15.00;;;25.80;49.30;;;;;;5072179;28;20454;-63
2023/05/21 12:09:11;;;;;;;17.70;13.90;;;25.90;45.50;;;;;;5072508;28;20450;-64
2023/05/21 12:11:39;;;;;;;18.07;13.27;;;25.60;47.20;;;;;;5071860;28;20475;-65
2023/05/21 12:14:08;;;;;;;17.43;12.70;;;26.40;48.10;;;;;;5071851;28;20450;-65
2023/05/21 12:16:35;;;;;;;19.97;13.10;;;26.40;44.50;;;;;;5071689;28;20850;-65
2023/05/21 12:19:03;;;;;;;17.50;12.23;;;26.70;41.20;;;;;;5072174;28;20450;-65
2023/05/21 12:21:30;;;;;;;18.70;13.67;;;26.30;40.90;;;;;;5071930;28;20447;-65
2023/05/21 12:23:58;;;;;;;17.23;13.07;;;27.80;39.30;;;;;;5072732;28;20446;-64
2023/05/21 12:26:26;;;;;;;18.03;13.00;;;27.70;40.50;;;;;;5072568;28;20461;-63